createdAt,value
2023-02-19T00:00:20.118Z,1022.9
2023-02-19T00:05:20.100Z,1022.8
2023-02-19T00:10:20.112Z,1022.9
2023-02-19T00:15:20.099Z,1022.8
2023-02-19T00:20:20.101Z,1022.7
2023-02-19T00:25:20.169Z,1022.7
2023-02-19T00:30:20.163Z,1022.6
2023-02-19T00:35:20.102Z,1022.6
2023-02-19T00:40:20.123Z,1022.6
2023-02-19T00:45:20.107Z,1022.4
2023-02-19T00:50:20.111Z,1022.4
2023-02-19T00:55:20.107Z,1022.5
2023-02-19T01:00:20.226Z,1022.4
2023-02-19T01:05:20.108Z,1022.3
2023-02-19T01:10:20.102Z,1022.3
2023-02-19T01:15:20.098Z,1022
2023-02-19T01:20:20.111Z,1022.2
2023-02-19T01:25:20.156Z,1022
2023-02-19T01:30:20.148Z,1022.1
2023-02-19T01:35:20.102Z,1022.1
2023-02-19T01:40:20.110Z,1022.1
2023-02-19T01:45:20.103Z,1022.1
2023-02-19T01:50:20.113Z,1021.9
2023-02-19T01:55:20.097Z,1021.9
2023-02-19T02:00:20.113Z,1021.7
2023-02-19T02:05:20.105Z,1021.8
2023-02-19T02:10:20.100Z,1021.7
2023-02-19T02:15:20.112Z,1021.5
2023-02-19T02:20:20.117Z,1021.5
2023-02-19T02:25:20.108Z,1021.5
2023-02-19T02:30:20.188Z,1021.5
2023-02-19T02:35:20.111Z,1021.3
2023-02-19T02:40:20.102Z,1021.4
2023-02-19T02:45:20.103Z,1021.4
2023-02-19T02:50:20.115Z,1021.4
2023-02-19T02:55:20.111Z,1021.3
2023-02-19T03:00:20.110Z,1021.1
2023-02-19T03:05:20.119Z,1021.1
2023-02-19T03:10:20.117Z,1021.1
2023-02-19T03:15:20.102Z,1021
2023-02-19T03:20:20.118Z,1021.1
2023-02-19T03:25:20.109Z,1021
2023-02-19T03:30:20.124Z,1021
2023-02-19T03:35:20.109Z,1021.1
2023-02-19T03:40:20.103Z,1020.9
2023-02-19T03:45:20.115Z,1020.9
2023-02-19T03:50:20.107Z,1020.9
2023-02-19T03:55:20.112Z,1020.8
2023-02-19T04:00:20.106Z,1020.9
2023-02-19T04:05:20.123Z,1020.7
2023-02-19T04:10:20.110Z,1020.7
2023-02-19T04:15:20.107Z,1020.7
2023-02-19T04:20:20.108Z,1020.7
2023-02-19T04:25:20.114Z,1020.8
2023-02-19T04:30:20.156Z,1020.8
2023-02-19T04:35:20.113Z,1021
2023-02-19T04:40:20.116Z,1021
2023-02-19T04:45:20.107Z,1020.9
2023-02-19T04:50:20.092Z,1021.1
2023-02-19T04:55:20.112Z,1021.1
2023-02-19T05:00:20.119Z,1021
2023-02-19T05:05:20.106Z,1021.1
2023-02-19T05:10:20.097Z,1021.2
2023-02-19T05:15:20.100Z,1021.1
2023-02-19T05:20:20.109Z,1021.2
2023-02-19T05:25:20.119Z,1021.3
2023-02-19T05:30:20.163Z,1021.3
2023-02-19T05:35:20.095Z,1021.4
2023-02-19T05:40:20.102Z,1021.4
2023-02-19T05:45:20.105Z,1021.3
2023-02-19T05:50:20.107Z,1021.5
2023-02-19T05:55:20.102Z,1021.5
2023-02-19T06:00:20.111Z,1021.5
2023-02-19T06:05:20.100Z,1021.6
2023-02-19T06:10:20.097Z,1021.7
2023-02-19T06:15:20.102Z,1021.7
2023-02-19T06:20:20.096Z,1021.7
2023-02-19T06:25:20.099Z,1021.7
2023-02-19T06:30:20.170Z,1021.8
2023-02-19T06:35:20.105Z,1021.7
2023-02-19T06:40:20.110Z,1021.7
2023-02-19T06:45:20.112Z,1021.8
2023-02-19T06:50:20.114Z,1021.9
2023-02-19T06:55:20.113Z,1022
2023-02-19T07:00:20.107Z,1022
2023-02-19T07:05:20.102Z,1022
2023-02-19T07:10:20.108Z,1022.2
2023-02-19T07:15:20.113Z,1022.3
2023-02-19T07:20:20.102Z,1022.5
2023-02-19T07:25:20.107Z,1022.6
2023-02-19T07:30:20.159Z,1022.5
2023-02-19T07:35:20.102Z,1022.6
2023-02-19T07:40:20.113Z,1022.7
2023-02-19T07:45:20.117Z,1022.7
2023-02-19T07:50:20.118Z,1022.8
2023-02-19T07:55:20.103Z,1022.9
2023-02-19T08:00:20.109Z,1023.2
2023-02-19T08:05:20.101Z,1023.2
2023-02-19T08:10:20.106Z,1023.3
2023-02-19T08:15:22.175Z,1023.2
2023-02-19T08:20:20.101Z,1023.3
2023-02-19T08:25:20.110Z,1023.4
2023-02-19T08:30:20.150Z,1023.5
2023-02-19T08:35:20.099Z,1023.6
2023-02-19T08:40:20.094Z,1023.7
2023-02-19T08:45:20.094Z,1023.8
2023-02-19T08:50:20.115Z,1023.8
2023-02-19T08:55:20.096Z,1023.9
2023-02-19T09:00:20.105Z,1024
2023-02-19T09:05:20.101Z,1024.1
2023-02-19T09:10:20.113Z,1024.2
2023-02-19T09:15:20.109Z,1024.2
2023-02-19T09:20:20.119Z,1024.2
2023-02-19T09:25:20.122Z,1024.2
2023-02-19T09:30:20.129Z,1024.1
2023-02-19T09:35:20.107Z,1024.3
2023-02-19T09:40:20.104Z,1024.2
2023-02-19T09:45:20.115Z,1024.3
2023-02-19T09:50:20.227Z,1024.3
2023-02-19T09:55:20.115Z,1024.2
2023-02-19T10:00:20.156Z,1024.4
2023-02-19T10:05:20.149Z,1024.5
2023-02-19T10:10:20.121Z,1024.6
2023-02-19T10:15:20.112Z,1024.6
2023-02-19T10:20:20.099Z,1024.4
2023-02-19T10:25:20.095Z,1024.5
2023-02-19T10:30:20.146Z,1024.9
2023-02-19T10:35:20.098Z,1024.8
2023-02-19T10:40:20.105Z,1024.9
2023-02-19T10:45:20.109Z,1025
2023-02-19T10:50:20.120Z,1025.1
2023-02-19T10:55:20.108Z,1025.2
2023-02-19T11:00:20.120Z,1025.1
2023-02-19T11:05:20.135Z,1025.3
2023-02-19T11:10:20.102Z,1025.3
2023-02-19T11:15:20.092Z,1025.3
2023-02-19T11:20:20.086Z,1025.3
2023-02-19T11:25:20.094Z,1025.5
2023-02-19T11:30:20.124Z,1025.5
2023-02-19T11:35:20.102Z,1025.5
2023-02-19T11:40:20.114Z,1025.4
2023-02-19T11:45:20.109Z,1025.6
2023-02-19T11:50:20.112Z,1025.5
2023-02-19T11:55:20.096Z,1025.6
2023-02-19T12:00:20.115Z,1025.7
2023-02-19T12:05:20.185Z,1025.6
2023-02-19T12:10:20.104Z,1025.6
2023-02-19T12:15:20.171Z,1025.6
2023-02-19T12:20:20.114Z,1025.6
2023-02-19T12:25:20.108Z,1025.7
2023-02-19T12:30:20.142Z,1025.6
2023-02-19T12:35:20.103Z,1025.6
2023-02-19T12:40:20.107Z,1025.6
2023-02-19T12:45:20.100Z,1025.7
2023-02-19T12:50:20.095Z,1025.7
2023-02-19T12:55:20.119Z,1025.7
2023-02-19T13:00:20.118Z,1025.7
2023-02-19T13:05:20.100Z,1025.8
2023-02-19T13:10:20.117Z,1025.9
2023-02-19T13:15:20.129Z,1025.7
2023-02-19T13:20:20.113Z,1025.6
2023-02-19T13:25:20.119Z,1025.5
2023-02-19T13:30:20.173Z,1025.5
2023-02-19T13:35:20.321Z,1025.4
2023-02-19T13:40:20.109Z,1025.5
2023-02-19T13:45:20.107Z,1025.6
2023-02-19T13:50:20.117Z,1025.5
2023-02-19T13:55:20.104Z,1025.6
2023-02-19T14:00:20.105Z,1025.6
2023-02-19T14:05:20.094Z,1025.7
2023-02-19T14:10:20.107Z,1025.8
2023-02-19T14:15:20.111Z,1025.9
2023-02-19T14:20:20.100Z,1026
2023-02-19T14:25:20.096Z,1026.1
2023-02-19T14:30:20.110Z,1026
2023-02-19T14:35:20.096Z,1025.9
2023-02-19T14:40:20.102Z,1026.1
2023-02-19T14:45:20.108Z,1026.2
2023-02-19T14:50:20.124Z,1026.3
2023-02-19T14:55:20.109Z,1026.4
2023-02-19T15:00:20.132Z,1026.4
2023-02-19T15:05:20.136Z,1026.4
2023-02-19T15:10:20.119Z,1026.4
2023-02-19T15:15:20.125Z,1026.4
2023-02-19T15:20:20.117Z,1026.4
2023-02-19T15:25:20.129Z,1026.3
2023-02-19T15:30:20.179Z,1026.2
2023-02-19T15:35:20.123Z,1026.3
2023-02-19T15:40:20.143Z,1026.3
2023-02-19T15:45:20.120Z,1026.3
2023-02-19T15:50:20.126Z,1026.4
2023-02-19T15:55:20.128Z,1026.5
2023-02-19T16:00:20.157Z,1026.6
2023-02-19T16:05:20.117Z,1026.6
2023-02-19T16:10:20.116Z,1026.7
2023-02-19T16:15:20.106Z,1026.7
2023-02-19T16:20:20.109Z,1026.7
2023-02-19T16:25:20.110Z,1026.8
2023-02-19T16:30:20.167Z,1026.7
2023-02-19T16:35:20.439Z,1026.7
2023-02-19T16:40:20.117Z,1026.6
2023-02-19T16:45:20.104Z,1026.7
2023-02-19T16:50:20.115Z,1026.7
2023-02-19T16:55:20.107Z,1026.9
2023-02-19T17:00:20.130Z,1026.8
2023-02-19T17:05:20.105Z,1026.9
2023-02-19T17:10:20.113Z,1026.9
2023-02-19T17:15:20.108Z,1027.1
2023-02-19T17:20:20.127Z,1027.2
2023-02-19T17:25:20.115Z,1027.3
2023-02-19T17:30:20.140Z,1027.4
2023-02-19T17:35:20.106Z,1027.4
2023-02-19T17:40:30.847Z,1027.6
2023-02-19T17:45:20.098Z,1027.8
2023-02-19T17:50:20.106Z,1027.7
2023-02-19T17:55:20.113Z,1027.8
2023-02-19T18:00:20.107Z,1027.8
2023-02-19T18:05:20.136Z,1027.9
2023-02-19T18:10:20.124Z,1027.9
2023-02-19T18:15:20.112Z,1028
2023-02-19T18:20:20.135Z,1027.9
2023-02-19T18:25:20.109Z,1028
2023-02-19T18:30:20.180Z,1028.2
2023-02-19T18:35:20.111Z,1028.2
2023-02-19T18:40:20.139Z,1028.2
2023-02-19T18:45:20.116Z,1028.3
2023-02-19T18:50:20.120Z,1028.3
2023-02-19T18:55:20.111Z,1028.3
2023-02-19T19:00:20.111Z,1028.3
2023-02-19T19:05:20.103Z,1028.3
2023-02-19T19:10:20.107Z,1028.2
2023-02-19T19:15:20.113Z,1028.2
2023-02-19T19:20:20.118Z,1028.2
2023-02-19T19:25:20.110Z,1028.4
2023-02-19T19:30:20.327Z,1028.3
2023-02-19T19:35:20.194Z,1028.3
2023-02-19T19:40:20.150Z,1028.4
2023-02-19T19:45:20.159Z,1028.3
2023-02-19T19:50:20.134Z,1028.5
2023-02-19T19:55:20.108Z,1028.5
2023-02-19T20:00:20.113Z,1028.6
2023-02-19T20:05:20.118Z,1028.7
2023-02-19T20:10:20.111Z,1028.8
2023-02-19T20:15:20.109Z,1028.7
2023-02-19T20:20:20.112Z,1028.7
2023-02-19T20:25:20.104Z,1028.8
2023-02-19T20:30:20.177Z,1028.9
2023-02-19T20:35:20.110Z,1028.9
2023-02-19T20:40:20.105Z,1028.9
2023-02-19T20:45:20.099Z,1028.9
2023-02-19T20:50:20.108Z,1029
2023-02-19T20:55:20.105Z,1029
2023-02-19T21:00:20.105Z,1029
2023-02-19T21:05:20.112Z,1029
2023-02-19T21:10:20.131Z,1029
2023-02-19T21:15:20.181Z,1029.1
2023-02-19T21:20:20.112Z,1029.1
2023-02-19T21:25:20.108Z,1029.1
2023-02-19T21:30:20.137Z,1029
2023-02-19T21:35:20.098Z,1029
2023-02-19T21:40:20.101Z,1029.2
2023-02-19T21:45:20.109Z,1029
2023-02-19T21:50:20.108Z,1029.2
2023-02-19T21:55:20.101Z,1029.2
2023-02-19T22:00:20.113Z,1029.3
2023-02-19T22:05:20.100Z,1029.4
2023-02-19T22:10:20.109Z,1029.3
2023-02-19T22:15:20.088Z,1029.4
2023-02-19T22:20:20.095Z,1029.3
2023-02-19T22:25:20.104Z,1029.4
2023-02-19T22:30:20.125Z,1029.5
2023-02-19T22:35:20.099Z,1029.7
2023-02-19T22:40:20.105Z,1029.8
2023-02-19T22:45:20.092Z,1029.7
2023-02-19T22:50:20.097Z,1029.7
2023-02-19T22:55:20.098Z,1029.7
2023-02-19T23:00:20.112Z,1029.8
2023-02-19T23:05:20.100Z,1029.8
2023-02-19T23:10:20.121Z,1029.5
2023-02-19T23:15:20.103Z,1029.6
2023-02-19T23:20:20.120Z,1029.6
2023-02-19T23:25:20.111Z,1029.5
2023-02-19T23:30:20.137Z,1029.5
2023-02-19T23:35:20.111Z,1029.5
2023-02-19T23:40:20.109Z,1029.4
2023-02-19T23:45:20.092Z,1029.5
2023-02-19T23:50:20.105Z,1029.7
2023-02-19T23:55:20.098Z,1029.7
